sensor_id;sensor_type;location;lat;lon;timestamp;pressure;altitude;pressure_sealevel;temperature;humidity
72359;BME280;60317;48.880;-0.862;2023-11-25T00:00:13;100953.03;;;18.26;42.67
72359;BME280;60317;48.880;-0.862;2023-11-25T00:02:40;100958.38;;;18.26;42.91
72359;BME280;60317;48.880;-0.862;2023-11-25T00:05:07;100956.63;;;18.25;42.94
72359;BME280;60317;48.880;-0.862;2023-11-25T00:07:33;100945.09;;;18.24;42.71
72359;BME280;60317;48.880;-0.862;2023-11-25T00:10:01;100947.88;;;18.23;42.88
72359;BME280;60317;48.880;-0.862;2023-11-25T00:12:28;100947.88;;;18.23;42.89
72359;BME280;60317;48.880;-0.862;2023-11-25T00:14:54;100947.03;;;18.22;42.92
72359;BME280;60317;48.880;-0.862;2023-11-25T00:17:21;100948.84;;;18.22;42.89
72359;BME280;60317;48.880;-0.862;2023-11-25T00:19:47;100947.13;;;18.21;42.81
72359;BME280;60317;48.880;-0.862;2023-11-25T00:22:14;100929.38;;;18.20;42.68
72359;BME280;60317;48.880;-0.862;2023-11-25T00:24:41;100941.03;;;18.19;42.96
72359;BME280;60317;48.880;-0.862;2023-11-25T00:27:08;100932.16;;;18.18;42.78
72359;BME280;60317;48.880;-0.862;2023-11-25T00:29:35;100935.78;;;18.17;42.70
72359;BME280;60317;48.880;-0.862;2023-11-25T00:32:01;100932.25;;;18.17;42.75
72359;BME280;60317;48.880;-0.862;2023-11-25T00:34:28;100926.03;;;18.16;42.65
72359;BME280;60317;48.880;-0.862;2023-11-25T00:36:55;100931.41;;;18.16;42.58
72359;BME280;60317;48.880;-0.862;2023-11-25T00:39:21;100926.13;;;18.15;42.70
72359;BME280;60317;48.880;-0.862;2023-11-25T00:41:48;100927.97;;;18.14;42.68
72359;BME280;60317;48.880;-0.862;2023-11-25T00:44:15;100910.22;;;18.13;42.46
72359;BME280;60317;48.880;-0.862;2023-11-25T00:46:42;100921.75;;;18.13;42.41
72359;BME280;60317;48.880;-0.862;2023-11-25T00:49:08;100931.59;;;18.13;42.58
72359;BME280;60317;48.880;-0.862;2023-11-25T00:51:35;100926.38;;;18.11;42.41
72359;BME280;60317;48.880;-0.862;2023-11-25T00:54:02;100917.47;;;18.11;42.61
72359;BME280;60317;48.880;-0.862;2023-11-25T00:56:28;100925.63;;;18.09;42.50
72359;BME280;60317;48.880;-0.862;2023-11-25T00:58:55;100929.16;;;18.10;42.32
72359;BME280;60317;48.880;-0.862;2023-11-25T01:01:23;100936.31;;;18.09;42.22
72359;BME280;60317;48.880;-0.862;2023-11-25T01:03:49;100929.25;;;18.08;42.22
72359;BME280;60317;48.880;-0.862;2023-11-25T01:06:16;100929.25;;;18.08;42.23
72359;BME280;60317;48.880;-0.862;2023-11-25T01:08:42;100928.41;;;18.08;42.48
72359;BME280;60317;48.880;-0.862;2023-11-25T01:11:09;100930.97;;;18.09;42.20
72359;BME280;60317;48.880;-0.862;2023-11-25T01:13:35;100942.50;;;18.10;42.20
72359;BME280;60317;48.880;-0.862;2023-11-25T01:16:02;100935.34;;;18.10;42.25
72359;BME280;60317;48.880;-0.862;2023-11-25T01:18:30;100938.03;;;18.10;42.07
72359;BME280;60317;48.880;-0.862;2023-11-25T01:20:57;100939.75;;;18.11;42.06
72359;BME280;60317;48.880;-0.862;2023-11-25T01:23:23;100939.75;;;18.11;42.13
72359;BME280;60317;48.880;-0.862;2023-11-25T01:25:50;100934.16;;;18.15;42.06
72359;BME280;60317;48.880;-0.862;2023-11-25T01:28:17;100937.72;;;18.15;41.98
72359;BME280;60317;48.880;-0.862;2023-11-25T01:30:44;100936.75;;;18.16;42.03
72359;BME280;60317;48.880;-0.862;2023-11-25T01:33:10;100936.63;;;18.18;42.14
72359;BME280;60317;48.880;-0.862;2023-11-25T01:35:38;100938.44;;;18.17;41.95
72359;BME280;60317;48.880;-0.862;2023-11-25T01:38:05;100939.22;;;18.19;42.15
72359;BME280;60317;48.880;-0.862;2023-11-25T01:40:31;100951.63;;;18.20;42.14
72359;BME280;60317;48.880;-0.862;2023-11-25T01:42:58;100954.19;;;18.22;41.87
72359;BME280;60317;48.880;-0.862;2023-11-25T01:45:25;100960.41;;;18.22;41.60
72359;BME280;60317;48.880;-0.862;2023-11-25T01:47:52;100947.03;;;18.22;41.90
72359;BME280;60317;48.880;-0.862;2023-11-25T01:50:20;100954.94;;;18.24;41.78
72359;BME280;60317;48.880;-0.862;2023-11-25T01:52:50;100953.97;;;18.25;41.88
72359;BME280;60317;48.880;-0.862;2023-11-25T01:55:17;100953.88;;;18.26;41.67
72359;BME280;60317;48.880;-0.862;2023-11-25T01:57:44;100959.09;;;18.28;41.72
72359;BME280;60317;48.880;-0.862;2023-11-25T02:00:12;100959.09;;;18.28;41.38
72359;BME280;60317;48.880;-0.862;2023-11-25T02:02:44;100964.38;;;18.29;41.45
72359;BME280;60317;48.880;-0.862;2023-11-25T02:05:11;100973.25;;;18.30;41.70
72359;BME280;60317;48.880;-0.862;2023-11-25T02:07:38;100965.22;;;18.30;41.63
72359;BME280;60317;48.880;-0.862;2023-11-25T02:10:06;100961.56;;;18.31;41.56
72359;BME280;60317;48.880;-0.862;2023-11-25T02:12:33;100961.56;;;18.31;41.52
72359;BME280;60317;48.880;-0.862;2023-11-25T02:15:00;100961.47;;;18.32;41.37
72359;BME280;60317;48.880;-0.862;2023-11-25T02:17:26;100967.69;;;18.33;41.18
72359;BME280;60317;48.880;-0.862;2023-11-25T02:19:53;100961.34;;;18.34;41.29
72359;BME280;60317;48.880;-0.862;2023-11-25T02:22:19;100961.34;;;18.34;41.40
72359;BME280;60317;48.880;-0.862;2023-11-25T02:24:47;100965.75;;;18.35;41.40
72359;BME280;60317;48.880;-0.862;2023-11-25T02:27:14;100970.25;;;18.34;41.25
72359;BME280;60317;48.880;-0.862;2023-11-25T02:29:40;100979.03;;;18.36;41.33
72359;BME280;60317;48.880;-0.862;2023-11-25T02:32:07;100971.94;;;18.35;40.99
72359;BME280;60317;48.880;-0.862;2023-11-25T02:34:33;100978.19;;;18.36;41.18
72359;BME280;60317;48.880;-0.862;2023-11-25T02:37:00;100975.50;;;18.36;40.92
72359;BME280;60317;48.880;-0.862;2023-11-25T02:39:27;100966.50;;;18.37;40.95
72359;BME280;60317;48.880;-0.862;2023-11-25T02:41:55;100962.00;;;18.38;41.03
72359;BME280;60317;48.880;-0.862;2023-11-25T02:44:21;100965.53;;;18.38;40.71
72359;BME280;60317;48.880;-0.862;2023-11-25T02:46:48;100964.56;;;18.39;40.68
72359;BME280;60317;48.880;-0.862;2023-11-25T02:49:16;100962.75;;;18.40;40.82
72359;BME280;60317;48.880;-0.862;2023-11-25T02:51:46;100969.81;;;18.41;40.62
72359;BME280;60317;48.880;-0.862;2023-11-25T02:54:13;100959.09;;;18.41;40.88
72359;BME280;60317;48.880;-0.862;2023-11-25T02:56:40;100959.97;;;18.41;40.65
72359;BME280;60317;48.880;-0.862;2023-11-25T02:59:07;100953.75;;;18.41;40.68
72359;BME280;60317;48.880;-0.862;2023-11-25T03:01:34;100953.63;;;18.42;40.65
72359;BME280;60317;48.880;-0.862;2023-11-25T03:04:01;100956.44;;;18.41;40.46
72359;BME280;60317;48.880;-0.862;2023-11-25T03:06:27;100955.47;;;18.42;40.53
72359;BME280;60317;48.880;-0.862;2023-11-25T03:08:54;100960.72;;;18.43;40.51
72359;BME280;60317;48.880;-0.862;2023-11-25T03:11:20;100954.47;;;18.43;40.57
72359;BME280;60317;48.880;-0.862;2023-11-25T03:13:47;100958.13;;;18.42;40.38
72359;BME280;60317;48.880;-0.862;2023-11-25T03:16:19;100952.69;;;18.43;40.65
72359;BME280;60317;48.880;-0.862;2023-11-25T03:18:45;100948.19;;;18.44;40.21
72359;BME280;60317;48.880;-0.862;2023-11-25T03:21:17;100952.69;;;18.43;40.45
72359;BME280;60317;48.880;-0.862;2023-11-25T03:23:44;100946.38;;;18.44;40.21
72359;BME280;60317;48.880;-0.862;2023-11-25T03:26:10;100945.38;;;18.45;40.27
72359;BME280;60317;48.880;-0.862;2023-11-25T03:28:36;100949.03;;;18.44;40.36
72359;BME280;60317;48.880;-0.862;2023-11-25T03:31:03;100943.69;;;18.44;40.26
72359;BME280;60317;48.880;-0.862;2023-11-25T03:33:31;100938.34;;;18.44;40.14
72359;BME280;60317;48.880;-0.862;2023-11-25T03:35:58;100936.41;;;18.46;40.15
72359;BME280;60317;48.880;-0.862;2023-11-25T03:38:24;100931.16;;;18.45;40.19
72359;BME280;60317;48.880;-0.862;2023-11-25T03:40:51;100943.47;;;18.47;40.30
72359;BME280;60317;48.880;-0.862;2023-11-25T03:43:18;100936.41;;;18.46;40.15
72359;BME280;60317;48.880;-0.862;2023-11-25T03:45:44;100941.66;;;18.48;40.17
72359;BME280;60317;48.880;-0.862;2023-11-25T03:48:11;100940.81;;;18.47;40.03
72359;BME280;60317;48.880;-0.862;2023-11-25T03:50:39;100934.59;;;18.47;40.07
72359;BME280;60317;48.880;-0.862;2023-11-25T03:53:06;100938.13;;;18.47;39.78
72359;BME280;60317;48.880;-0.862;2023-11-25T03:55:32;100947.00;;;18.48;40.15
72359;BME280;60317;48.880;-0.862;2023-11-25T03:57:59;100946.16;;;18.47;40.11
72359;BME280;60317;48.880;-0.862;2023-11-25T04:00:25;100948.81;;;18.47;40.07
72359;BME280;60317;48.880;-0.862;2023-11-25T04:02:52;100946.16;;;18.47;40.05
72359;BME280;60317;48.880;-0.862;2023-11-25T04:05:19;100943.47;;;18.47;39.94
72359;BME280;60317;48.880;-0.862;2023-11-25T04:07:47;100948.72;;;18.49;39.73
72359;BME280;60317;48.880;-0.862;2023-11-25T04:10:14;100945.19;;;18.48;39.84
72359;BME280;60317;48.880;-0.862;2023-11-25T04:12:41;100944.31;;;18.48;39.67
72359;BME280;60317;48.880;-0.862;2023-11-25T04:15:08;100936.31;;;18.48;39.85
72359;BME280;60317;48.880;-0.862;2023-11-25T04:17:35;100934.47;;;18.48;39.61
72359;BME280;60317;48.880;-0.862;2023-11-25T04:20:02;100937.16;;;18.48;39.69
72359;BME280;60317;48.880;-0.862;2023-11-25T04:22:29;100938.00;;;18.49;39.70
72359;BME280;60317;48.880;-0.862;2023-11-25T04:24:57;100943.34;;;18.49;39.42
72359;BME280;60317;48.880;-0.862;2023-11-25T04:27:23;100945.19;;;18.48;39.81
72359;BME280;60317;48.880;-0.862;2023-11-25T04:29:50;100947.84;;;18.48;39.67
72359;BME280;60317;48.880;-0.862;2023-11-25T04:32:17;100946.88;;;18.49;39.79
72359;BME280;60317;48.880;-0.862;2023-11-25T04:34:43;100947.75;;;18.50;39.57
72359;BME280;60317;48.880;-0.862;2023-11-25T04:37:10;100949.56;;;18.49;39.63
72359;BME280;60317;48.880;-0.862;2023-11-25T04:39:37;100953.22;;;18.48;39.51
72359;BME280;60317;48.880;-0.862;2023-11-25T04:42:05;100947.84;;;18.48;39.63
72359;BME280;60317;48.880;-0.862;2023-11-25T04:44:31;100951.28;;;18.50;39.42
72359;BME280;60317;48.880;-0.862;2023-11-25T04:46:58;100952.22;;;18.49;39.63
72359;BME280;60317;48.880;-0.862;2023-11-25T04:49:25;100950.44;;;18.50;39.40
72359;BME280;60317;48.880;-0.862;2023-11-25T04:51:51;100953.13;;;18.50;39.41
72359;BME280;60317;48.880;-0.862;2023-11-25T04:54:18;100945.94;;;18.50;39.36
72359;BME280;60317;48.880;-0.862;2023-11-25T04:56:44;100935.31;;;18.49;39.41
72359;BME280;60317;48.880;-0.862;2023-11-25T04:59:12;100938.84;;;18.49;39.29
72359;BME280;60317;48.880;-0.862;2023-11-25T05:01:38;100936.19;;;18.49;39.21
72359;BME280;60317;48.880;-0.862;2023-11-25T05:04:05;100936.19;;;18.49;39.41
72359;BME280;60317;48.880;-0.862;2023-11-25T05:06:32;100941.53;;;18.49;39.28
72359;BME280;60317;48.880;-0.862;2023-11-25T05:08:59;100935.22;;;18.50;39.32
72359;BME280;60317;48.880;-0.862;2023-11-25T05:11:25;100928.91;;;18.51;39.18
72359;BME280;60317;48.880;-0.862;2023-11-25T05:13:52;100928.91;;;18.51;39.04
72359;BME280;60317;48.880;-0.862;2023-11-25T05:16:20;100922.78;;;18.49;39.09
72359;BME280;60317;48.880;-0.862;2023-11-25T05:18:46;100926.34;;;18.50;39.01
72359;BME280;60317;48.880;-0.862;2023-11-25T05:21:13;100914.66;;;18.51;39.29
72359;BME280;60317;48.880;-0.862;2023-11-25T05:23:39;100916.50;;;18.50;39.01
72359;BME280;60317;48.880;-0.862;2023-11-25T05:26:06;100912.97;;;18.50;39.13
72359;BME280;60317;48.880;-0.862;2023-11-25T05:28:32;100914.66;;;18.51;39.04
72359;BME280;60317;48.880;-0.862;2023-11-25T05:30:59;100916.50;;;18.50;39.05
72359;BME280;60317;48.880;-0.862;2023-11-25T05:33:27;100912.00;;;18.51;38.95
72359;BME280;60317;48.880;-0.862;2023-11-25T05:35:54;100909.31;;;18.51;38.74
72359;BME280;60317;48.880;-0.862;2023-11-25T05:38:21;100920.88;;;18.51;39.02
72359;BME280;60317;48.880;-0.862;2023-11-25T05:40:47;100922.78;;;18.49;38.88
72359;BME280;60317;48.880;-0.862;2023-11-25T05:43:14;100922.56;;;18.52;38.93
72359;BME280;60317;48.880;-0.862;2023-11-25T05:45:41;100920.88;;;18.51;38.86
72359;BME280;60317;48.880;-0.862;2023-11-25T05:48:07;100920.88;;;18.51;38.82
72359;BME280;60317;48.880;-0.862;2023-11-25T05:50:35;100918.19;;;18.51;38.67
72359;BME280;60317;48.880;-0.862;2023-11-25T05:53:02;100925.38;;;18.51;38.79
72359;BME280;60317;48.880;-0.862;2023-11-25T05:55:28;100934.25;;;18.51;38.61
72359;BME280;60317;48.880;-0.862;2023-11-25T05:57:55;100928.91;;;18.51;38.81
72359;BME280;60317;48.880;-0.862;2023-11-25T06:00:25;100923.56;;;18.51;38.78
72359;BME280;60317;48.880;-0.862;2023-11-25T06:02:52;100928.91;;;18.51;38.74
72359;BME280;60317;48.880;-0.862;2023-11-25T06:05:18;100927.19;;;18.50;38.74
72359;BME280;60317;48.880;-0.862;2023-11-25T06:07:46;100937.91;;;18.50;38.72
72359;BME280;60317;48.880;-0.862;2023-11-25T06:10:13;100935.22;;;18.50;38.74
72359;BME280;60317;48.880;-0.862;2023-11-25T06:12:40;100937.06;;;18.50;38.62
72359;BME280;60317;48.880;-0.862;2023-11-25T06:15:07;100940.59;;;18.50;38.60
72359;BME280;60317;48.880;-0.862;2023-11-25T06:17:33;100933.41;;;18.51;38.97
72359;BME280;60317;48.880;-0.862;2023-11-25T06:20:00;100944.13;;;18.51;38.59
72359;BME280;60317;48.880;-0.862;2023-11-25T06:22:27;100937.06;;;18.50;38.68
72359;BME280;60317;48.880;-0.862;2023-11-25T06:24:54;100939.72;;;18.50;38.78
72359;BME280;60317;48.880;-0.862;2023-11-25T06:27:21;100940.59;;;18.50;38.62
72359;BME280;60317;48.880;-0.862;2023-11-25T06:29:47;100943.25;;;18.50;38.61
72359;BME280;60317;48.880;-0.862;2023-11-25T06:32:14;100934.38;;;18.50;38.21
72359;BME280;60317;48.880;-0.862;2023-11-25T06:34:40;100944.13;;;18.51;38.53
72359;BME280;60317;48.880;-0.862;2023-11-25T06:37:07;100937.06;;;18.50;38.39
72359;BME280;60317;48.880;-0.862;2023-11-25T06:39:34;100953.97;;;18.50;38.52
72359;BME280;60317;48.880;-0.862;2023-11-25T06:42:02;100937.91;;;18.50;38.44
72359;BME280;60317;48.880;-0.862;2023-11-25T06:44:28;100939.72;;;18.50;38.25
72359;BME280;60317;48.880;-0.862;2023-11-25T06:46:55;100939.72;;;18.50;38.56
72359;BME280;60317;48.880;-0.862;2023-11-25T06:49:22;100950.44;;;18.50;38.44
72359;BME280;60317;48.880;-0.862;2023-11-25T06:51:48;100956.66;;;18.50;38.47
72359;BME280;60317;48.880;-0.862;2023-11-25T06:54:15;100949.56;;;18.49;38.15
72359;BME280;60317;48.880;-0.862;2023-11-25T06:56:41;100951.28;;;18.50;38.41
72359;BME280;60317;48.880;-0.862;2023-11-25T06:59:09;100949.56;;;18.49;38.21
72359;BME280;60317;48.880;-0.862;2023-11-25T07:01:36;100948.63;;;18.50;38.35
72359;BME280;60317;48.880;-0.862;2023-11-25T07:04:03;100949.56;;;18.49;38.25
72359;BME280;60317;48.880;-0.862;2023-11-25T07:06:29;100946.78;;;18.51;38.50
72359;BME280;60317;48.880;-0.862;2023-11-25T07:08:56;100945.94;;;18.50;38.21
72359;BME280;60317;48.880;-0.862;2023-11-25T07:11:22;100945.94;;;18.50;38.21
72359;BME280;60317;48.880;-0.862;2023-11-25T07:13:49;100951.28;;;18.50;38.24
72359;BME280;60317;48.880;-0.862;2023-11-25T07:16:17;100962.00;;;18.50;38.01
72359;BME280;60317;48.880;-0.862;2023-11-25T07:18:44;100959.31;;;18.50;38.24
72359;BME280;60317;48.880;-0.862;2023-11-25T07:21:11;100963.81;;;18.50;37.98
72359;BME280;60317;48.880;-0.862;2023-11-25T07:23:37;100965.63;;;18.49;38.04
72359;BME280;60317;48.880;-0.862;2023-11-25T07:26:04;100971.84;;;18.50;37.99
72359;BME280;60317;48.880;-0.862;2023-11-25T07:28:31;100971.84;;;18.50;38.08
72359;BME280;60317;48.880;-0.862;2023-11-25T07:30:58;100973.66;;;18.49;38.00
72359;BME280;60317;48.880;-0.862;2023-11-25T07:33:25;100981.69;;;18.49;38.00
72359;BME280;60317;48.880;-0.862;2023-11-25T07:35:52;100975.47;;;18.49;38.17
72359;BME280;60317;48.880;-0.862;2023-11-25T07:38:19;100981.69;;;18.49;37.89
72359;BME280;60317;48.880;-0.862;2023-11-25T07:40:45;100985.25;;;18.50;38.22
72359;BME280;60317;48.880;-0.862;2023-11-25T07:43:12;100988.75;;;18.50;37.96
72359;BME280;60317;48.880;-0.862;2023-11-25T07:45:38;100975.38;;;18.50;38.07
72359;BME280;60317;48.880;-0.862;2023-11-25T07:48:05;100987.91;;;18.50;38.07
72359;BME280;60317;48.880;-0.862;2023-11-25T07:50:33;100996.78;;;18.50;37.92
72359;BME280;60317;48.880;-0.862;2023-11-25T07:53:00;100991.44;;;18.50;38.00
72359;BME280;60317;48.880;-0.862;2023-11-25T07:55:26;100979.88;;;18.50;37.99
72359;BME280;60317;48.880;-0.862;2023-11-25T07:57:53;100984.25;;;18.51;37.80
72359;BME280;60317;48.880;-0.862;2023-11-25T08:00:20;100982.56;;;18.50;37.92
72359;BME280;60317;48.880;-0.862;2023-11-25T08:02:46;100979.00;;;18.49;37.82
72359;BME280;60317;48.880;-0.862;2023-11-25T08:05:13;100977.22;;;18.50;37.90
72359;BME280;60317;48.880;-0.862;2023-11-25T08:07:41;100981.69;;;18.49;37.96
72359;BME280;60317;48.880;-0.862;2023-11-25T08:10:08;100988.75;;;18.50;37.88
72359;BME280;60317;48.880;-0.862;2023-11-25T08:12:34;100996.03;;;18.48;37.95
72359;BME280;60317;48.880;-0.862;2023-11-25T08:15:01;100990.69;;;18.48;38.06
72359;BME280;60317;48.880;-0.862;2023-11-25T08:17:27;100987.03;;;18.49;38.12
72359;BME280;60317;48.880;-0.862;2023-11-25T08:19:54;100994.22;;;18.49;37.86
72359;BME280;60317;48.880;-0.862;2023-11-25T08:22:21;100994.22;;;18.49;37.81
72359;BME280;60317;48.880;-0.862;2023-11-25T08:24:49;100997.88;;;18.48;37.87
72359;BME280;60317;48.880;-0.862;2023-11-25T08:27:15;101001.38;;;18.48;38.05
72359;BME280;60317;48.880;-0.862;2023-11-25T08:29:41;100994.34;;;18.47;37.91
72359;BME280;60317;48.880;-0.862;2023-11-25T08:32:08;100989.84;;;18.48;37.76
72359;BME280;60317;48.880;-0.862;2023-11-25T08:34:36;100995.31;;;18.46;37.93
72359;BME280;60317;48.880;-0.862;2023-11-25T08:37:02;101005.03;;;18.47;38.00
72359;BME280;60317;48.880;-0.862;2023-11-25T08:39:29;100993.47;;;18.47;38.03
72359;BME280;60317;48.880;-0.862;2023-11-25T08:41:57;100999.69;;;18.47;37.95
72359;BME280;60317;48.880;-0.862;2023-11-25T08:44:23;100988.22;;;18.45;37.87
72359;BME280;60317;48.880;-0.862;2023-11-25T08:46:50;100990.91;;;18.45;37.90
72359;BME280;60317;48.880;-0.862;2023-11-25T08:49:16;100986.38;;;18.46;38.06
72359;BME280;60317;48.880;-0.862;2023-11-25T08:51:43;100989.06;;;18.46;38.15
72359;BME280;60317;48.880;-0.862;2023-11-25T08:54:10;100989.94;;;18.46;38.21
72359;BME280;60317;48.880;-0.862;2023-11-25T08:56:39;100992.63;;;18.46;38.09
72359;BME280;60317;48.880;-0.862;2023-11-25T08:59:07;100989.06;;;18.46;38.00
72359;BME280;60317;48.880;-0.862;2023-11-25T09:01:37;100987.38;;;18.45;38.00
72359;BME280;60317;48.880;-0.862;2023-11-25T09:04:04;100991.88;;;18.44;38.15
72359;BME280;60317;48.880;-0.862;2023-11-25T09:06:30;100987.38;;;18.45;38.21
72359;BME280;60317;48.880;-0.862;2023-11-25T09:08:57;100998.91;;;18.45;38.16
72359;BME280;60317;48.880;-0.862;2023-11-25T09:11:23;100982.13;;;18.43;38.22
72359;BME280;60317;48.880;-0.862;2023-11-25T09:13:50;100988.34;;;18.44;38.24
72359;BME280;60317;48.880;-0.862;2023-11-25T09:16:18;100988.34;;;18.44;38.24
72359;BME280;60317;48.880;-0.862;2023-11-25T09:18:44;100998.19;;;18.43;38.18
72359;BME280;60317;48.880;-0.862;2023-11-25T09:21:11;100996.47;;;18.42;38.24
72359;BME280;60317;48.880;-0.862;2023-11-25T09:23:38;101002.66;;;18.43;38.14
72359;BME280;60317;48.880;-0.862;2023-11-25T09:26:04;101001.81;;;18.42;38.26
72359;BME280;60317;48.880;-0.862;2023-11-25T09:28:31;101000.97;;;18.42;38.25
72359;BME280;60317;48.880;-0.862;2023-11-25T09:30:57;100999.13;;;18.42;38.12
72359;BME280;60317;48.880;-0.862;2023-11-25T09:33:26;100989.53;;;18.40;38.20
72359;BME280;60317;48.880;-0.862;2023-11-25T09:35:52;100989.53;;;18.40;38.18
72359;BME280;60317;48.880;-0.862;2023-11-25T09:38:19;100992.19;;;18.40;38.37
72359;BME280;60317;48.880;-0.862;2023-11-25T09:40:45;100994.00;;;18.39;38.26
72359;BME280;60317;48.880;-0.862;2023-11-25T09:43:12;101006.53;;;18.39;38.17
72359;BME280;60317;48.880;-0.862;2023-11-25T09:45:40;101004.81;;;18.38;38.16
72359;BME280;60317;48.880;-0.862;2023-11-25T09:48:07;101003.13;;;18.36;38.37
72359;BME280;60317;48.880;-0.862;2023-11-25T09:50:35;101000.31;;;18.38;38.48
72359;BME280;60317;48.880;-0.862;2023-11-25T09:53:12;100996.91;;;18.36;38.49
72359;BME280;60317;48.880;-0.862;2023-11-25T09:55:39;100992.50;;;18.35;38.63
72359;BME280;60317;48.880;-0.862;2023-11-25T09:58:07;100996.16;;;18.34;38.67
72359;BME280;60317;48.880;-0.862;2023-11-25T10:00:35;100997.13;;;18.33;38.68
72359;BME280;60317;48.880;-0.862;2023-11-25T10:03:03;100996.28;;;18.32;38.47
72359;BME280;60317;48.880;-0.862;2023-11-25T10:05:34;100998.06;;;18.32;38.48
72359;BME280;60317;48.880;-0.862;2023-11-25T10:08:01;100991.00;;;18.31;38.47
72359;BME280;60317;48.880;-0.862;2023-11-25T10:10:28;100989.31;;;18.30;38.52
72359;BME280;60317;48.880;-0.862;2023-11-25T10:12:54;100994.66;;;18.30;38.85
72359;BME280;60317;48.880;-0.862;2023-11-25T10:15:21;100990.28;;;18.29;38.52
72359;BME280;60317;48.880;-0.862;2023-11-25T10:17:48;100992.94;;;18.29;38.62
72359;BME280;60317;48.880;-0.862;2023-11-25T10:20:15;100988.53;;;18.28;38.73
72359;BME280;60317;48.880;-0.862;2023-11-25T10:22:46;100994.75;;;18.28;38.79
72359;BME280;60317;48.880;-0.862;2023-11-25T10:25:15;100997.66;;;18.25;38.55
72359;BME280;60317;48.880;-0.862;2023-11-25T10:27:43;100993.16;;;18.26;38.75
72359;BME280;60317;48.880;-0.862;2023-11-25T10:30:12;100994.09;;;18.25;38.83
72359;BME280;60317;48.880;-0.862;2023-11-25T10:32:39;100981.69;;;18.24;38.82
72359;BME280;60317;48.880;-0.862;2023-11-25T10:35:06;100996.91;;;18.23;38.99
72359;BME280;60317;48.880;-0.862;2023-11-25T10:37:33;100988.00;;;18.23;38.71
72359;BME280;60317;48.880;-0.862;2023-11-25T10:40:01;100991.53;;;18.23;38.93
72359;BME280;60317;48.880;-0.862;2023-11-25T10:42:28;100972.94;;;18.22;39.00
72359;BME280;60317;48.880;-0.862;2023-11-25T10:44:55;100980.00;;;18.23;39.02
72359;BME280;60317;48.880;-0.862;2023-11-25T10:47:30;100970.34;;;18.20;38.97
72359;BME280;60317;48.880;-0.862;2023-11-25T10:49:58;100979.13;;;18.22;39.01
72359;BME280;60317;48.880;-0.862;2023-11-25T10:52:25;100971.31;;;18.19;39.04
72359;BME280;60317;48.880;-0.862;2023-11-25T10:54:54;100976.66;;;18.19;39.02
72359;BME280;60317;48.880;-0.862;2023-11-25T10:57:22;100970.47;;;18.19;39.01
72359;BME280;60317;48.880;-0.862;2023-11-25T10:59:56;100968.66;;;18.19;39.05
72359;BME280;60317;48.880;-0.862;2023-11-25T11:02:27;100964.34;;;18.17;39.18
72359;BME280;60317;48.880;-0.862;2023-11-25T11:04:57;100970.56;;;18.17;39.23
72359;BME280;60317;48.880;-0.862;2023-11-25T11:07:26;100968.00;;;18.16;39.19
72359;BME280;60317;48.880;-0.862;2023-11-25T11:09:56;100963.50;;;18.16;39.30
72359;BME280;60317;48.880;-0.862;2023-11-25T11:12:28;100958.34;;;18.13;39.40
72359;BME280;60317;48.880;-0.862;2023-11-25T11:14:59;100958.34;;;18.13;39.21
72359;BME280;60317;48.880;-0.862;2023-11-25T11:17:31;100956.53;;;18.13;39.25
72359;BME280;60317;48.880;-0.862;2023-11-25T11:20:04;100962.84;;;18.12;39.34
72359;BME280;60317;48.880;-0.862;2023-11-25T11:22:31;100954.06;;;18.10;39.40
72359;BME280;60317;48.880;-0.862;2023-11-25T11:25:07;100952.38;;;18.09;39.38
72359;BME280;60317;48.880;-0.862;2023-11-25T11:27:41;100953.22;;;18.10;39.27
72359;BME280;60317;48.880;-0.862;2023-11-25T11:30:14;100947.00;;;18.09;39.38
72359;BME280;60317;48.880;-0.862;2023-11-25T11:32:43;100946.25;;;18.07;39.27
72359;BME280;60317;48.880;-0.862;2023-11-25T11:35:11;100941.88;;;18.06;39.34
72359;BME280;60317;48.880;-0.862;2023-11-25T11:37:39;100937.50;;;18.05;39.28
72359;BME280;60317;48.880;-0.862;2023-11-25T11:40:12;100942.00;;;18.05;39.55
72359;BME280;60317;48.880;-0.862;2023-11-25T11:42:40;100947.22;;;18.06;39.45
72359;BME280;60317;48.880;-0.862;2023-11-25T11:45:08;100933.13;;;18.04;39.21
72359;BME280;60317;48.880;-0.862;2023-11-25T11:47:37;100934.91;;;18.04;39.15
72359;BME280;60317;48.880;-0.862;2023-11-25T11:50:04;100929.69;;;18.02;39.18
72359;BME280;60317;48.880;-0.862;2023-11-25T11:52:31;100923.47;;;18.02;39.30
72359;BME280;60317;48.880;-0.862;2023-11-25T11:58:03;100922.63;;;18.01;39.33
72359;BME280;60317;48.880;-0.862;2023-11-25T12:00:29;100915.53;;;18.00;39.39
72359;BME280;60317;48.880;-0.862;2023-11-25T12:02:56;100914.59;;;18.01;39.30
72359;BME280;60317;48.880;-0.862;2023-11-25T12:05:24;100917.28;;;18.01;39.30
72359;BME280;60317;48.880;-0.862;2023-11-25T12:07:51;100914.69;;;18.00;39.48
72359;BME280;60317;48.880;-0.862;2023-11-25T12:10:19;100904.00;;;18.00;39.17
72359;BME280;60317;48.880;-0.862;2023-11-25T12:12:45;100899.50;;;18.00;39.27
72359;BME280;60317;48.880;-0.862;2023-11-25T12:15:13;100902.16;;;18.00;39.42
72359;BME280;60317;48.880;-0.862;2023-11-25T12:17:39;100902.16;;;18.00;39.48
72359;BME280;60317;48.880;-0.862;2023-11-25T12:20:06;100895.97;;;18.00;39.27
72359;BME280;60317;48.880;-0.862;2023-11-25T12:22:33;100897.78;;;17.99;39.46
72359;BME280;60317;48.880;-0.862;2023-11-25T12:25:00;100895.13;;;17.99;39.44
72359;BME280;60317;48.880;-0.862;2023-11-25T12:27:28;100898.66;;;18.00;39.31
72359;BME280;60317;48.880;-0.862;2023-11-25T12:29:55;100901.44;;;17.98;39.42
72359;BME280;60317;48.880;-0.862;2023-11-25T12:32:23;100897.06;;;17.97;39.23
72359;BME280;60317;48.880;-0.862;2023-11-25T12:34:50;100894.38;;;17.97;39.35
72359;BME280;60317;48.880;-0.862;2023-11-25T12:37:16;100898.00;;;17.96;39.25
72359;BME280;60317;48.880;-0.862;2023-11-25T12:39:43;100896.19;;;17.97;39.34
72359;BME280;60317;48.880;-0.862;2023-11-25T12:42:10;100894.47;;;17.96;39.36